GHG weather

Marshfield Municipal George Harlow Field
Marshfield, Massachusetts, United States

Public forecast

Using degrees Fahrenheit for public forecast. Weather courtesy of forecast.io.

METAR (pilot weather report)

Retrieved 2019/07/22 01:35 UTC (0 seconds ago):

KGHG 220135Z AUTO 00000KT 10SM CLR 28/21 A2977 RMK AO2

TAF (pilot weather forecast)

Forecast is more than 12 hours old.

Closest forecast is General Edward Lawrence Logan International Airport, 21.8 nm (40.3 km) NW. Retrieved 2019/07/21 00:22 UTC (1 day ago):

TAF KBOS 212320Z 2200/2306 28010KT P6SM FEW250 FM221100 36006KT P6SM SCT100 FM221400 05008KT P6SM BKN100 FM221800 08010KT P6SM VCSH BKN060 FM222100 07010KT 6SM +SHRA OVC020 FM230000 04010G17KT 4SM BR VCSH OVC015